createdAt,value
2022-11-30T00:01:24.161Z,5.70
2022-11-30T00:03:56.175Z,5.70
2022-11-30T00:06:26.431Z,5.70
2022-11-30T00:08:55.994Z,5.70
2022-11-30T00:11:25.709Z,5.70
2022-11-30T00:13:53.334Z,5.70
2022-11-30T00:16:21.391Z,5.70
2022-11-30T00:18:48.516Z,5.60
2022-11-30T00:21:16.311Z,5.60
2022-11-30T00:23:45.836Z,5.50
2022-11-30T00:26:17.889Z,5.60
2022-11-30T00:28:46.137Z,5.50
2022-11-30T00:31:16.978Z,5.50
2022-11-30T00:33:44.460Z,5.50
2022-11-30T00:36:24.615Z,5.50
2022-11-30T00:38:52.356Z,5.50
2022-11-30T00:41:20.769Z,5.50
2022-11-30T00:43:48.342Z,5.50
2022-11-30T00:46:15.949Z,5.50
2022-11-30T00:48:43.065Z,5.50
2022-11-30T00:51:11.906Z,5.60
2022-11-30T00:53:40.716Z,5.50
2022-11-30T00:56:09.242Z,5.60
2022-11-30T00:58:36.374Z,5.60
2022-11-30T01:01:03.887Z,5.70
2022-11-30T01:03:31.005Z,5.70
2022-11-30T01:06:09.945Z,5.80
2022-11-30T01:08:37.191Z,5.80
2022-11-30T01:11:37.065Z,5.80
2022-11-30T01:14:04.279Z,5.90
2022-11-30T01:16:33.745Z,5.90
2022-11-30T01:19:01.261Z,5.80
2022-11-30T01:21:29.751Z,5.70
2022-11-30T01:23:57.119Z,5.70
2022-11-30T01:26:25.520Z,5.70
2022-11-30T01:28:55.482Z,5.70
2022-11-30T01:31:24.675Z,5.80
2022-11-30T01:33:54.465Z,5.80
2022-11-30T01:36:28.197Z,5.80
2022-11-30T01:38:57.996Z,5.80
2022-11-30T01:41:32.842Z,5.90
2022-11-30T01:44:05.580Z,6.00
2022-11-30T01:46:50.170Z,6.00
2022-11-30T01:49:24.984Z,6.10
2022-11-30T01:52:16.774Z,6.10
2022-11-30T01:55:12.705Z,6.10
2022-11-30T01:57:49.321Z,6.20
2022-11-30T02:00:16.978Z,6.20
2022-11-30T02:03:20.405Z,6.20
2022-11-30T02:05:47.519Z,6.20
2022-11-30T02:08:14.743Z,6.20
2022-11-30T02:10:47.811Z,6.20
2022-11-30T02:13:26.655Z,6.20
2022-11-30T02:16:05.395Z,6.20
2022-11-30T02:18:59.597Z,6.10
2022-11-30T02:21:49.608Z,6.10
2022-11-30T02:24:53.739Z,6.10
2022-11-30T02:27:59.565Z,6.10
2022-11-30T02:30:26.987Z,6.10
2022-11-30T02:33:08.908Z,6.10
2022-11-30T02:35:41.878Z,6.10
2022-11-30T02:38:10.255Z,6.10
2022-11-30T02:40:37.338Z,6.10
2022-11-30T02:43:06.644Z,6.10
2022-11-30T02:45:46.170Z,6.10
2022-11-30T02:48:16.893Z,6.10
2022-11-30T02:50:53.113Z,6.10
2022-11-30T02:53:21.124Z,6.10
2022-11-30T02:55:48.250Z,6.10
2022-11-30T02:58:18.759Z,6.00
2022-11-30T03:00:45.833Z,6.00
2022-11-30T03:03:12.896Z,6.00
2022-11-30T03:05:39.964Z,5.90
2022-11-30T03:08:07.072Z,5.90
2022-11-30T03:10:34.074Z,5.90
2022-11-30T03:13:01.142Z,5.90
2022-11-30T03:15:28.434Z,6.00
2022-11-30T03:17:55.608Z,6.00
2022-11-30T03:20:23.731Z,6.10
2022-11-30T03:22:50.745Z,6.10
2022-11-30T03:25:17.859Z,6.20
2022-11-30T03:27:44.901Z,6.20
2022-11-30T03:30:12.628Z,6.20
2022-11-30T03:32:39.643Z,6.20
2022-11-30T03:35:07.080Z,6.30
2022-11-30T03:37:34.070Z,6.30
2022-11-30T03:40:01.113Z,6.30
2022-11-30T03:42:28.156Z,6.30
2022-11-30T03:44:57.475Z,6.40
2022-11-30T03:47:24.496Z,6.40
2022-11-30T03:49:51.580Z,6.40
2022-11-30T03:52:18.582Z,6.40
2022-11-30T03:54:45.925Z,6.40
2022-11-30T03:57:13.152Z,6.50
2022-11-30T03:59:40.132Z,6.40
2022-11-30T04:02:07.258Z,6.50
2022-11-30T04:04:34.372Z,6.50
2022-11-30T04:07:01.393Z,6.50
2022-11-30T04:09:28.409Z,6.50
2022-11-30T04:11:55.527Z,6.60
2022-11-30T04:14:22.686Z,6.60
2022-11-30T04:16:49.737Z,6.50
2022-11-30T04:19:16.829Z,6.50
2022-11-30T04:21:43.868Z,6.50
2022-11-30T04:24:10.972Z,6.50
2022-11-30T04:26:38.453Z,6.50
2022-11-30T04:29:05.466Z,6.50
2022-11-30T04:31:32.672Z,6.50
2022-11-30T04:33:59.781Z,6.50
2022-11-30T04:36:26.796Z,6.50
2022-11-30T04:38:54.006Z,6.50
2022-11-30T04:41:21.109Z,6.50
2022-11-30T04:43:48.131Z,6.40
2022-11-30T04:46:15.366Z,6.50
2022-11-30T04:48:42.515Z,6.50
2022-11-30T04:51:09.786Z,6.40
2022-11-30T04:53:38.482Z,6.40
2022-11-30T04:56:11.064Z,6.50
2022-11-30T04:58:39.158Z,6.40
2022-11-30T05:01:07.460Z,6.40
2022-11-30T05:03:34.832Z,6.50
2022-11-30T05:06:02.397Z,6.40
2022-11-30T05:08:29.422Z,6.40
2022-11-30T05:10:56.688Z,6.50
2022-11-30T05:13:25.945Z,6.50
2022-11-30T05:15:55.933Z,6.40
2022-11-30T05:18:23.664Z,6.40
2022-11-30T05:20:52.960Z,6.50
2022-11-30T05:23:21.086Z,6.50
2022-11-30T05:25:48.357Z,6.50
2022-11-30T05:28:16.128Z,6.50
2022-11-30T05:30:44.114Z,6.50
2022-11-30T05:33:11.686Z,6.50
2022-11-30T05:35:39.155Z,6.50
2022-11-30T05:38:06.523Z,6.50
2022-11-30T05:40:36.345Z,6.50
2022-11-30T05:43:05.593Z,6.40
2022-11-30T05:45:32.638Z,6.40
2022-11-30T05:47:59.750Z,6.40
2022-11-30T05:50:26.844Z,6.40
2022-11-30T05:52:58.242Z,6.40
2022-11-30T05:55:25.678Z,6.40
2022-11-30T05:57:53.032Z,6.40
2022-11-30T06:00:21.465Z,6.40
2022-11-30T06:02:48.723Z,6.40
2022-11-30T06:05:17.008Z,6.30
2022-11-30T06:07:44.100Z,6.30
2022-11-30T06:10:12.105Z,6.30
2022-11-30T06:12:39.126Z,6.30
2022-11-30T06:15:06.751Z,6.30
2022-11-30T06:17:33.897Z,6.30
2022-11-30T06:20:00.908Z,6.20
2022-11-30T06:22:27.915Z,6.20
2022-11-30T06:24:54.987Z,6.20
2022-11-30T06:27:22.014Z,6.10
2022-11-30T06:29:49.000Z,6.10
2022-11-30T06:32:16.065Z,6.10
2022-11-30T06:34:43.044Z,6.20
2022-11-30T06:37:10.209Z,6.20
2022-11-30T06:40:04.904Z,6.20
2022-11-30T06:42:24.275Z,6.20
2022-11-30T06:44:51.534Z,6.20
2022-11-30T06:47:21.584Z,6.10
2022-11-30T06:49:48.596Z,6.10
2022-11-30T06:52:16.106Z,6.00
2022-11-30T06:54:43.120Z,6.00
2022-11-30T06:57:10.124Z,5.90
2022-11-30T06:59:38.207Z,5.80
2022-11-30T07:02:09.662Z,5.80
2022-11-30T07:04:39.369Z,5.80
2022-11-30T07:07:07.650Z,5.80
2022-11-30T07:09:35.593Z,5.80
2022-11-30T07:12:05.109Z,5.70
2022-11-30T07:14:32.130Z,5.70
2022-11-30T07:16:59.221Z,5.70
2022-11-30T07:19:26.293Z,5.70
2022-11-30T07:21:53.272Z,5.70
2022-11-30T07:24:38.516Z,5.70
2022-11-30T07:27:05.589Z,5.80
2022-11-30T07:29:32.592Z,5.70
2022-11-30T07:31:59.700Z,5.80
2022-11-30T07:34:26.861Z,5.70
2022-11-30T07:36:53.875Z,5.70
2022-11-30T07:39:20.910Z,5.80
2022-11-30T07:41:48.033Z,5.80
2022-11-30T07:44:15.372Z,5.80
2022-11-30T07:46:42.470Z,5.90
2022-11-30T07:49:10.660Z,5.90
2022-11-30T07:51:37.793Z,6.00
2022-11-30T07:54:05.520Z,6.00
2022-11-30T07:56:32.536Z,6.10
2022-11-30T07:59:01.985Z,6.20
2022-11-30T08:01:32.977Z,6.20
2022-11-30T08:04:00.487Z,6.20
2022-11-30T08:06:32.012Z,6.30
2022-11-30T08:09:03.220Z,6.30
2022-11-30T08:11:34.095Z,6.30
2022-11-30T08:14:02.824Z,6.30
2022-11-30T08:16:34.690Z,6.30
2022-11-30T08:19:02.037Z,6.30
2022-11-30T08:21:29.187Z,6.30
2022-11-30T08:23:57.302Z,6.30
2022-11-30T08:26:33.353Z,6.30
2022-11-30T08:29:01.865Z,6.40
2022-11-30T08:31:31.769Z,6.40
2022-11-30T08:34:02.201Z,6.40
2022-11-30T08:36:30.521Z,6.40
2022-11-30T08:38:59.585Z,6.40
2022-11-30T08:41:27.220Z,6.40
2022-11-30T08:43:54.830Z,6.40
2022-11-30T08:49:21.534Z,6.40
2022-11-30T08:54:39.194Z,6.50
2022-11-30T08:57:06.211Z,6.50
2022-11-30T08:59:33.305Z,6.50
2022-11-30T09:02:00.500Z,6.50
2022-11-30T09:04:27.568Z,6.50
2022-11-30T09:06:59.034Z,6.40
2022-11-30T09:09:28.199Z,6.40
2022-11-30T09:11:55.265Z,6.50
2022-11-30T09:14:23.548Z,6.50
2022-11-30T09:16:50.576Z,6.50
2022-11-30T09:19:17.561Z,6.50
2022-11-30T09:21:51.267Z,6.60
2022-11-30T09:24:19.833Z,6.60
2022-11-30T09:26:47.057Z,6.60
2022-11-30T09:29:14.096Z,6.60
2022-11-30T09:31:41.220Z,6.60
2022-11-30T09:34:10.984Z,6.60
2022-11-30T09:36:38.061Z,6.60
2022-11-30T09:39:05.109Z,6.70
2022-11-30T09:41:35.835Z,6.70
2022-11-30T09:44:23.794Z,6.80
2022-11-30T09:47:27.471Z,6.90
2022-11-30T09:50:02.956Z,7.00
2022-11-30T09:52:48.906Z,7.10
2022-11-30T09:55:31.064Z,7.10
2022-11-30T09:58:04.225Z,7.10
2022-11-30T10:00:32.104Z,7.20
2022-11-30T10:03:04.884Z,7.20
2022-11-30T10:05:40.657Z,7.10
2022-11-30T10:08:37.597Z,7.10
2022-11-30T10:11:10.636Z,7.10
2022-11-30T10:13:50.480Z,7.00
2022-11-30T10:16:29.134Z,6.90
2022-11-30T10:19:59.108Z,6.90
2022-11-30T10:23:15.117Z,6.90
2022-11-30T10:25:59.457Z,6.90
2022-11-30T10:28:51.167Z,6.80
2022-11-30T10:31:38.754Z,6.90
2022-11-30T10:34:21.584Z,6.90
2022-11-30T10:37:12.259Z,6.90
2022-11-30T10:39:48.820Z,6.90
2022-11-30T10:42:26.405Z,7.10
2022-11-30T10:45:23.949Z,7.20
2022-11-30T10:48:12.376Z,7.30
2022-11-30T10:50:40.888Z,7.30
2022-11-30T10:53:12.003Z,7.10
2022-11-30T10:55:55.866Z,7.10
2022-11-30T10:58:50.518Z,7.00
2022-11-30T11:01:42.596Z,7.10
2022-11-30T11:04:12.457Z,7.30
2022-11-30T11:06:47.773Z,7.20
2022-11-30T11:09:35.896Z,7.30
2022-11-30T11:12:22.583Z,7.50
2022-11-30T11:14:49.695Z,7.80
2022-11-30T11:17:23.281Z,8.00
2022-11-30T11:19:51.977Z,8.20
2022-11-30T11:22:28.039Z,8.30
2022-11-30T11:25:21.779Z,8.10
2022-11-30T11:28:02.688Z,8.10
2022-11-30T11:30:31.833Z,8.20
2022-11-30T11:33:15.222Z,8.00
2022-11-30T11:35:51.147Z,8.10
2022-11-30T11:38:42.622Z,8.00
2022-11-30T11:41:21.167Z,7.80
2022-11-30T11:44:09.115Z,8.00
2022-11-30T11:47:05.193Z,8.20
2022-11-30T11:49:37.594Z,8.30
2022-11-30T11:52:20.765Z,8.30
2022-11-30T11:54:52.250Z,8.30
2022-11-30T11:57:26.042Z,8.20
2022-11-30T12:00:16.130Z,8.20
2022-11-30T12:03:07.002Z,8.10
2022-11-30T12:06:04.361Z,8.30
2022-11-30T12:08:53.030Z,8.60
2022-11-30T12:11:43.909Z,8.80
2022-11-30T12:14:14.641Z,8.90
2022-11-30T12:17:21.014Z,9.00
2022-11-30T12:20:33.562Z,8.80
2022-11-30T12:23:29.965Z,8.60
2022-11-30T12:26:11.874Z,8.70
2022-11-30T12:29:04.436Z,8.90
2022-11-30T12:32:06.733Z,9.20
2022-11-30T12:34:46.153Z,9.40
2022-11-30T12:37:27.183Z,9.30
2022-11-30T12:40:24.109Z,9.30
2022-11-30T12:43:08.920Z,9.10
2022-11-30T12:45:41.442Z,9.00
2022-11-30T12:48:23.360Z,8.80
2022-11-30T12:51:33.197Z,8.70
2022-11-30T12:54:35.750Z,8.60
2022-11-30T12:57:23.243Z,8.60
2022-11-30T13:00:36.155Z,8.60
2022-11-30T13:03:28.574Z,8.60
2022-11-30T13:06:00.982Z,8.60
2022-11-30T13:08:54.432Z,8.40
2022-11-30T13:11:39.118Z,8.30
2022-11-30T13:14:22.129Z,8.30
2022-11-30T13:17:02.634Z,8.30
2022-11-30T13:20:07.736Z,8.30
2022-11-30T13:23:10.298Z,8.30
2022-11-30T13:26:10.075Z,8.30
2022-11-30T13:29:23.512Z,8.30
2022-11-30T13:32:05.580Z,8.20
2022-11-30T13:34:33.092Z,8.20
2022-11-30T13:37:09.921Z,8.20
2022-11-30T13:39:48.869Z,8.20
2022-11-30T13:42:30.913Z,8.20
2022-11-30T13:45:15.640Z,8.10
2022-11-30T13:48:30.886Z,8.20
2022-11-30T13:50:58.100Z,8.10
2022-11-30T13:53:34.313Z,8.10
2022-11-30T13:56:05.740Z,8.10
2022-11-30T13:58:34.001Z,8.10
2022-11-30T14:01:01.454Z,8.00
2022-11-30T14:03:32.396Z,7.90
2022-11-30T14:06:05.256Z,7.80
2022-11-30T14:08:38.689Z,7.80
2022-11-30T14:11:35.030Z,7.70
2022-11-30T14:14:53.333Z,7.60
2022-11-30T14:17:28.268Z,7.60
2022-11-30T14:20:16.652Z,7.60
2022-11-30T14:22:44.373Z,7.60
2022-11-30T14:25:18.914Z,7.50
2022-11-30T14:27:48.089Z,7.50
2022-11-30T14:30:22.962Z,7.50
2022-11-30T14:33:19.467Z,7.50
2022-11-30T14:35:55.207Z,7.50
2022-11-30T14:38:31.027Z,7.40
2022-11-30T14:40:58.597Z,7.30
2022-11-30T14:43:26.266Z,7.30
2022-11-30T14:46:08.138Z,7.30
2022-11-30T14:48:38.631Z,7.10
2022-11-30T14:51:06.042Z,7.10
2022-11-30T14:54:01.768Z,7.10
2022-11-30T14:56:49.834Z,7.10
2022-11-30T14:59:50.033Z,7.10
2022-11-30T15:02:35.159Z,7.10
2022-11-30T15:05:02.405Z,7.10
2022-11-30T15:07:30.227Z,7.10
2022-11-30T15:10:12.589Z,7.00
2022-11-30T15:12:41.918Z,6.90
2022-11-30T15:15:40.207Z,6.90
2022-11-30T15:18:18.110Z,6.90
2022-11-30T15:21:07.175Z,6.90
2022-11-30T15:23:34.576Z,6.90
2022-11-30T15:26:27.590Z,6.90
2022-11-30T15:29:05.518Z,6.90
2022-11-30T15:31:40.672Z,6.90
2022-11-30T15:34:26.958Z,6.80
2022-11-30T15:36:56.610Z,6.80
2022-11-30T15:39:26.891Z,6.80
2022-11-30T15:42:02.640Z,6.80
2022-11-30T15:44:45.415Z,6.80
2022-11-30T15:47:32.850Z,6.80
2022-11-30T15:49:59.999Z,6.80
2022-11-30T15:52:30.772Z,6.80
2022-11-30T15:55:03.323Z,6.80
2022-11-30T15:57:59.501Z,6.80
2022-11-30T16:00:27.606Z,6.70
2022-11-30T16:03:15.069Z,6.80
2022-11-30T16:05:59.062Z,6.80
2022-11-30T16:08:26.892Z,6.70
2022-11-30T16:10:55.228Z,6.70
2022-11-30T16:13:23.400Z,6.70
2022-11-30T16:15:52.625Z,6.70
2022-11-30T16:18:26.431Z,6.70
2022-11-30T16:20:57.842Z,6.70
2022-11-30T16:23:26.046Z,6.70
2022-11-30T16:25:53.870Z,6.70
2022-11-30T16:28:22.522Z,6.60
2022-11-30T16:30:50.308Z,6.60
2022-11-30T16:33:25.243Z,6.60
2022-11-30T16:36:00.458Z,6.50
2022-11-30T16:38:28.493Z,6.40
2022-11-30T16:40:56.359Z,6.40
2022-11-30T16:43:26.234Z,6.30
2022-11-30T16:45:53.390Z,6.30
2022-11-30T16:48:20.795Z,6.30
2022-11-30T16:50:47.907Z,6.30
2022-11-30T16:53:15.660Z,6.30
2022-11-30T16:55:43.054Z,6.20
2022-11-30T16:58:10.156Z,6.20
2022-11-30T17:00:40.346Z,6.20
2022-11-30T17:03:21.270Z,6.30
2022-11-30T17:05:48.406Z,6.30
2022-11-30T17:08:15.808Z,6.30
2022-11-30T17:10:43.569Z,6.30
2022-11-30T17:13:15.741Z,6.20
2022-11-30T17:15:42.758Z,6.20
2022-11-30T17:18:10.007Z,6.20
2022-11-30T17:20:37.791Z,6.30
2022-11-30T17:23:06.149Z,6.30
2022-11-30T17:25:33.508Z,6.30
2022-11-30T17:28:00.798Z,6.30
2022-11-30T17:30:28.080Z,6.20
2022-11-30T17:32:55.220Z,6.20
2022-11-30T17:35:22.360Z,6.20
2022-11-30T17:37:50.150Z,6.20
2022-11-30T17:40:17.565Z,6.20
2022-11-30T17:42:44.678Z,6.10
2022-11-30T17:45:11.919Z,6.10
2022-11-30T17:47:39.107Z,6.10
2022-11-30T17:50:07.826Z,6.10
2022-11-30T17:52:34.849Z,6.10
2022-11-30T17:55:01.905Z,6.10
2022-11-30T17:57:29.014Z,6.10
2022-11-30T17:59:56.020Z,6.10
2022-11-30T18:02:23.158Z,6.00
2022-11-30T18:04:52.655Z,6.00
2022-11-30T18:07:22.575Z,5.90
2022-11-30T18:09:49.625Z,5.90
2022-11-30T18:12:17.480Z,5.90
2022-11-30T18:14:45.592Z,6.00
2022-11-30T18:17:12.780Z,5.80
2022-11-30T18:19:39.840Z,5.70
2022-11-30T18:22:06.861Z,5.70
2022-11-30T18:24:36.623Z,5.80
2022-11-30T18:27:03.764Z,5.80
2022-11-30T18:29:30.814Z,5.70
2022-11-30T18:31:57.801Z,5.70
2022-11-30T18:34:24.882Z,5.70
2022-11-30T18:36:51.994Z,5.70
2022-11-30T18:39:19.104Z,5.70
2022-11-30T18:41:46.151Z,5.70
2022-11-30T18:44:13.259Z,5.70
2022-11-30T18:46:40.562Z,5.70
2022-11-30T18:49:07.781Z,5.70
2022-11-30T18:51:35.068Z,5.60
2022-11-30T18:54:10.431Z,5.60
2022-11-30T18:56:39.205Z,5.60
2022-11-30T18:59:14.974Z,5.60
2022-11-30T19:01:42.650Z,5.50
2022-11-30T19:04:11.606Z,5.40
2022-11-30T19:06:41.285Z,5.40
2022-11-30T19:09:14.150Z,5.50
2022-11-30T19:11:42.715Z,5.50
2022-11-30T19:14:14.587Z,5.50
2022-11-30T19:16:42.662Z,5.50
2022-11-30T19:19:14.378Z,5.50
2022-11-30T19:21:44.790Z,5.50
2022-11-30T19:24:11.820Z,5.50
2022-11-30T19:26:40.236Z,5.50
2022-11-30T19:29:08.069Z,5.50
2022-11-30T19:31:35.146Z,5.50
2022-11-30T19:34:09.088Z,5.50
2022-11-30T19:36:39.358Z,5.40
2022-11-30T19:39:06.424Z,5.40
2022-11-30T19:41:33.425Z,5.40
2022-11-30T19:44:04.708Z,5.40
2022-11-30T19:46:33.349Z,5.40
2022-11-30T19:49:02.178Z,5.40
2022-11-30T19:51:31.217Z,5.40
2022-11-30T19:54:00.581Z,5.30
2022-11-30T19:56:30.681Z,5.30
2022-11-30T19:59:04.016Z,5.20
2022-11-30T20:01:32.184Z,5.20
2022-11-30T20:04:00.572Z,5.30
2022-11-30T20:06:31.282Z,5.20
2022-11-30T20:08:58.532Z,5.10
2022-11-30T20:11:25.739Z,5.10
2022-11-30T20:13:52.957Z,5.10
2022-11-30T20:16:23.834Z,5.20
2022-11-30T20:18:57.775Z,5.20
2022-11-30T20:21:28.214Z,5.20
2022-11-30T20:24:00.996Z,5.10
2022-11-30T20:26:38.113Z,5.00
2022-11-30T20:29:08.349Z,5.00
2022-11-30T20:31:37.292Z,4.90
2022-11-30T20:34:06.344Z,4.90
2022-11-30T20:36:33.858Z,4.90
2022-11-30T20:39:03.019Z,4.90
2022-11-30T20:41:30.058Z,4.80
2022-11-30T20:43:57.423Z,4.80
2022-11-30T20:46:33.202Z,4.80
2022-11-30T20:49:03.181Z,4.90
2022-11-30T20:51:35.010Z,5.00
2022-11-30T20:54:08.720Z,5.00
2022-11-30T20:56:37.445Z,5.00
2022-11-30T20:59:08.045Z,4.90
2022-11-30T21:01:35.574Z,4.90
2022-11-30T21:04:05.629Z,5.00
2022-11-30T21:06:32.981Z,5.00
2022-11-30T21:09:00.498Z,5.00
2022-11-30T21:11:29.524Z,5.10
2022-11-30T21:13:57.747Z,5.10
2022-11-30T21:16:29.016Z,5.10
2022-11-30T21:18:59.670Z,5.20
2022-11-30T21:21:33.717Z,5.20
2022-11-30T21:24:07.747Z,5.20
2022-11-30T21:26:39.371Z,5.20
2022-11-30T21:29:12.584Z,5.10
2022-11-30T21:31:40.203Z,5.10
2022-11-30T21:34:07.573Z,5.10
2022-11-30T21:36:34.955Z,5.10
2022-11-30T21:39:07.063Z,5.00
2022-11-30T21:41:40.119Z,5.10
2022-11-30T21:44:12.138Z,5.10
2022-11-30T21:46:39.579Z,5.20
2022-11-30T21:49:07.253Z,5.30
2022-11-30T21:51:34.405Z,5.30
2022-11-30T21:54:05.464Z,5.30
2022-11-30T21:56:36.362Z,5.30
2022-11-30T21:59:07.581Z,5.30
2022-11-30T22:01:41.789Z,5.20
2022-11-30T22:04:11.559Z,5.30
2022-11-30T22:06:40.318Z,5.30
2022-11-30T22:09:16.658Z,5.30
2022-11-30T22:11:45.876Z,5.30
2022-11-30T22:14:16.505Z,5.30
2022-11-30T22:16:43.751Z,5.40
2022-11-30T22:19:11.168Z,5.40
2022-11-30T22:21:38.897Z,5.40
2022-11-30T22:24:09.852Z,5.40
2022-11-30T22:26:43.278Z,5.40
2022-11-30T22:29:20.116Z,5.50
2022-11-30T22:31:53.501Z,5.40
2022-11-30T22:34:21.422Z,5.40
2022-11-30T22:36:48.561Z,5.40
2022-11-30T22:39:19.831Z,5.40
2022-11-30T22:41:54.715Z,5.30
2022-11-30T22:44:23.153Z,5.30
2022-11-30T22:46:50.476Z,5.30
2022-11-30T22:49:21.223Z,5.20
2022-11-30T22:51:50.963Z,5.20
2022-11-30T22:54:18.724Z,5.30
2022-11-30T22:56:46.629Z,5.20
2022-11-30T22:59:14.994Z,5.10
2022-11-30T23:01:48.218Z,5.10
2022-11-30T23:04:18.857Z,5.10
2022-11-30T23:06:48.149Z,5.10
2022-11-30T23:09:20.435Z,5.10
2022-11-30T23:11:48.139Z,5.00
2022-11-30T23:14:16.456Z,5.00
2022-11-30T23:16:45.253Z,5.00
2022-11-30T23:19:13.849Z,5.00
2022-11-30T23:21:45.064Z,5.00
2022-11-30T23:24:22.590Z,5.00
2022-11-30T23:26:50.193Z,5.00
2022-11-30T23:29:17.980Z,5.00
2022-11-30T23:31:46.201Z,5.00
2022-11-30T23:34:17.920Z,5.00
2022-11-30T23:36:48.375Z,4.90
2022-11-30T23:39:18.190Z,4.90
2022-11-30T23:41:45.896Z,4.90
2022-11-30T23:44:13.092Z,4.90
2022-11-30T23:46:40.681Z,4.70
2022-11-30T23:49:08.336Z,4.80
2022-11-30T23:51:35.645Z,4.80
2022-11-30T23:54:02.750Z,4.70
2022-11-30T23:56:29.742Z,4.70
2022-11-30T23:58:56.773Z,4.70
